sensor_id;sensor_type;location;lat;lon;timestamp;pressure;altitude;pressure_sealevel;temperature;humidity
38806;BME280;25635;51.146;17.162;2023-07-24T00:02:15;99413.55;;;19.56;54.04
38806;BME280;25635;51.146;17.162;2023-07-24T00:04:41;99412.05;;;19.45;54.43
38806;BME280;25635;51.146;17.162;2023-07-24T00:07:07;99410.74;;;19.37;54.45
38806;BME280;25635;51.146;17.162;2023-07-24T00:09:33;99411.25;;;19.28;54.57
38806;BME280;25635;51.146;17.162;2023-07-24T00:11:59;99411.84;;;19.18;54.70
38806;BME280;25635;51.146;17.162;2023-07-24T00:14:25;99410.48;;;19.07;54.81
38806;BME280;25635;51.146;17.162;2023-07-24T00:16:51;99411.36;;;18.98;54.97
38806;BME280;25635;51.146;17.162;2023-07-24T00:19:17;99412.23;;;18.88;55.10
38806;BME280;25635;51.146;17.162;2023-07-24T00:21:43;99409.13;;;18.77;55.29
38806;BME280;25635;51.146;17.162;2023-07-24T00:24:09;99405.73;;;18.67;55.31
38806;BME280;25635;51.146;17.162;2023-07-24T00:26:35;99409.27;;;18.57;55.49
38806;BME280;25635;51.146;17.162;2023-07-24T00:29:00;99411.48;;;18.49;55.78
38806;BME280;25635;51.146;17.162;2023-07-24T00:31:27;99408.30;;;18.42;55.96
38806;BME280;25635;51.146;17.162;2023-07-24T00:33:53;99407.41;;;18.36;56.04
38806;BME280;25635;51.146;17.162;2023-07-24T00:36:19;99404.16;;;18.27;56.12
38806;BME280;25635;51.146;17.162;2023-07-24T00:38:45;99401.17;;;18.20;56.38
38806;BME280;25635;51.146;17.162;2023-07-24T00:41:11;99404.45;;;18.14;56.72
38806;BME280;25635;51.146;17.162;2023-07-24T00:43:37;99406.11;;;18.10;56.73
38806;BME280;25635;51.146;17.162;2023-07-24T00:46:03;99403.48;;;18.02;56.76
38806;BME280;25635;51.146;17.162;2023-07-24T00:48:29;99396.25;;;17.95;56.93
38806;BME280;25635;51.146;17.162;2023-07-24T00:50:56;99393.84;;;17.88;57.14
38806;BME280;25635;51.146;17.162;2023-07-24T00:53:22;99393.61;;;17.81;57.14
38806;BME280;25635;51.146;17.162;2023-07-24T00:55:48;99383.71;;;17.75;57.24
38806;BME280;25635;51.146;17.162;2023-07-24T00:58:16;99380.69;;;17.68;57.32
38806;BME280;25635;51.146;17.162;2023-07-24T01:00:42;99375.17;;;17.62;57.64
38806;BME280;25635;51.146;17.162;2023-07-24T01:03:08;99379.77;;;17.58;57.90
38806;BME280;25635;51.146;17.162;2023-07-24T01:05:35;99381.98;;;17.56;57.89
38806;BME280;25635;51.146;17.162;2023-07-24T01:08:02;99383.45;;;17.51;57.90
38806;BME280;25635;51.146;17.162;2023-07-24T01:10:28;99386.17;;;17.46;58.11
38806;BME280;25635;51.146;17.162;2023-07-24T01:12:59;99391.56;;;17.40;58.17
38806;BME280;25635;51.146;17.162;2023-07-24T01:15:33;99399.11;;;17.34;58.27
38806;BME280;25635;51.146;17.162;2023-07-24T01:18:09;99400.96;;;17.28;58.41
38806;BME280;25635;51.146;17.162;2023-07-24T01:20:37;99398.89;;;17.24;58.62
38806;BME280;25635;51.146;17.162;2023-07-24T01:23:37;99402.00;;;17.21;58.76
38806;BME280;25635;51.146;17.162;2023-07-24T01:26:05;99407.29;;;17.17;58.83
38806;BME280;25635;51.146;17.162;2023-07-24T01:28:32;99404.04;;;17.16;58.95
38806;BME280;25635;51.146;17.162;2023-07-24T01:30:58;99402.84;;;17.15;58.97
38806;BME280;25635;51.146;17.162;2023-07-24T01:33:24;99400.74;;;17.11;59.00
38806;BME280;25635;51.146;17.162;2023-07-24T01:35:54;99401.91;;;17.05;59.21
38806;BME280;25635;51.146;17.162;2023-07-24T01:38:21;99404.84;;;17.03;59.33
38806;BME280;25635;51.146;17.162;2023-07-24T01:40:48;99404.27;;;16.99;59.53
38806;BME280;25635;51.146;17.162;2023-07-24T01:43:14;99401.76;;;16.97;59.68
38806;BME280;25635;51.146;17.162;2023-07-24T01:45:40;99399.67;;;16.96;59.77
38806;BME280;25635;51.146;17.162;2023-07-24T01:48:07;99395.69;;;16.95;59.84
38806;BME280;25635;51.146;17.162;2023-07-24T01:50:33;99389.63;;;16.93;59.94
38806;BME280;25635;51.146;17.162;2023-07-24T01:52:59;99393.30;;;16.89;59.93
38806;BME280;25635;51.146;17.162;2023-07-24T01:55:24;99389.02;;;16.87;60.20
38806;BME280;25635;51.146;17.162;2023-07-24T01:57:51;99388.75;;;16.85;60.14
38806;BME280;25635;51.146;17.162;2023-07-24T02:00:17;99385.20;;;16.81;60.29
38806;BME280;25635;51.146;17.162;2023-07-24T02:02:43;99384.38;;;16.80;60.40
38806;BME280;25635;51.146;17.162;2023-07-24T02:05:09;99384.58;;;16.79;60.61
38806;BME280;25635;51.146;17.162;2023-07-24T02:07:35;99381.54;;;16.81;60.66
38806;BME280;25635;51.146;17.162;2023-07-24T02:10:01;99384.91;;;16.80;60.54
38806;BME280;25635;51.146;17.162;2023-07-24T02:12:27;99383.55;;;16.78;60.69
38806;BME280;25635;51.146;17.162;2023-07-24T02:14:53;99379.92;;;16.77;60.90
38806;BME280;25635;51.146;17.162;2023-07-24T02:17:20;99371.38;;;16.75;60.89
38806;BME280;25635;51.146;17.162;2023-07-24T02:19:46;99372.20;;;16.73;61.10
38806;BME280;25635;51.146;17.162;2023-07-24T02:22:12;99364.17;;;16.71;61.19
38806;BME280;25635;51.146;17.162;2023-07-24T02:24:38;99359.71;;;16.73;61.39
38806;BME280;25635;51.146;17.162;2023-07-24T02:27:05;99361.05;;;16.74;61.40
38806;BME280;25635;51.146;17.162;2023-07-24T02:29:31;99363.09;;;16.76;61.43
38806;BME280;25635;51.146;17.162;2023-07-24T02:31:58;99357.23;;;16.77;61.57
38806;BME280;25635;51.146;17.162;2023-07-24T02:34:24;99351.18;;;16.78;61.54
38806;BME280;25635;51.146;17.162;2023-07-24T02:36:52;99346.58;;;16.79;61.71
38806;BME280;25635;51.146;17.162;2023-07-24T02:39:19;99341.96;;;16.80;61.83
38806;BME280;25635;51.146;17.162;2023-07-24T02:41:47;99345.20;;;16.83;61.88
38806;BME280;25635;51.146;17.162;2023-07-24T02:44:14;99343.60;;;16.83;61.79
38806;BME280;25635;51.146;17.162;2023-07-24T02:46:40;99336.13;;;16.81;61.75
38806;BME280;25635;51.146;17.162;2023-07-24T02:49:06;99331.23;;;16.79;62.02
38806;BME280;25635;51.146;17.162;2023-07-24T02:51:32;99335.29;;;16.79;62.09
38806;BME280;25635;51.146;17.162;2023-07-24T02:53:57;99339.15;;;16.79;62.11
38806;BME280;25635;51.146;17.162;2023-07-24T02:56:23;99343.41;;;16.78;62.23
38806;BME280;25635;51.146;17.162;2023-07-24T02:58:49;99347.21;;;16.81;62.34
38806;BME280;25635;51.146;17.162;2023-07-24T03:01:15;99340.63;;;16.83;62.43
38806;BME280;25635;51.146;17.162;2023-07-24T03:03:41;99339.48;;;16.84;62.45
38806;BME280;25635;51.146;17.162;2023-07-24T03:06:08;99336.84;;;16.85;62.34
38806;BME280;25635;51.146;17.162;2023-07-24T03:08:34;99332.83;;;16.84;62.40
38806;BME280;25635;51.146;17.162;2023-07-24T03:11:00;99330.80;;;16.86;62.46
38806;BME280;25635;51.146;17.162;2023-07-24T03:13:27;99337.04;;;16.91;62.42
38806;BME280;25635;51.146;17.162;2023-07-24T03:15:55;99331.54;;;16.92;62.27
38806;BME280;25635;51.146;17.162;2023-07-24T03:18:21;99332.67;;;16.91;62.23
38806;BME280;25635;51.146;17.162;2023-07-24T03:20:48;99335.14;;;16.91;62.25
38806;BME280;25635;51.146;17.162;2023-07-24T03:23:14;99330.00;;;16.91;62.23
38806;BME280;25635;51.146;17.162;2023-07-24T03:25:40;99334.37;;;16.92;62.32
38806;BME280;25635;51.146;17.162;2023-07-24T03:28:06;99340.10;;;16.90;62.21
38806;BME280;25635;51.146;17.162;2023-07-24T03:30:31;99339.70;;;16.87;62.26
38806;BME280;25635;51.146;17.162;2023-07-24T03:32:58;99338.89;;;16.86;62.38
38806;BME280;25635;51.146;17.162;2023-07-24T03:35:23;99336.09;;;16.86;62.39
38806;BME280;25635;51.146;17.162;2023-07-24T03:37:49;99335.18;;;16.86;62.60
38806;BME280;25635;51.146;17.162;2023-07-24T03:40:15;99333.06;;;16.86;62.45
38806;BME280;25635;51.146;17.162;2023-07-24T03:42:41;99337.13;;;16.86;62.55
38806;BME280;25635;51.146;17.162;2023-07-24T03:45:08;99337.69;;;16.85;62.68
38806;BME280;25635;51.146;17.162;2023-07-24T03:47:34;99337.40;;;16.84;62.74
38806;BME280;25635;51.146;17.162;2023-07-24T03:50:00;99336.73;;;16.83;62.94
38806;BME280;25635;51.146;17.162;2023-07-24T03:52:26;99336.09;;;16.85;62.91
38806;BME280;25635;51.146;17.162;2023-07-24T03:54:52;99332.84;;;16.87;63.14
38806;BME280;25635;51.146;17.162;2023-07-24T03:57:18;99335.38;;;16.90;63.21
38806;BME280;25635;51.146;17.162;2023-07-24T03:59:44;99331.71;;;16.92;63.09
38806;BME280;25635;51.146;17.162;2023-07-24T04:02:10;99327.39;;;16.98;63.15
38806;BME280;25635;51.146;17.162;2023-07-24T04:04:37;99325.00;;;17.04;63.26
38806;BME280;25635;51.146;17.162;2023-07-24T04:07:04;99323.23;;;17.07;63.36
38806;BME280;25635;51.146;17.162;2023-07-24T04:09:30;99317.06;;;17.11;63.42
38806;BME280;25635;51.146;17.162;2023-07-24T04:11:55;99318.42;;;17.16;63.47
38806;BME280;25635;51.146;17.162;2023-07-24T04:14:22;99314.78;;;17.18;63.35
38806;BME280;25635;51.146;17.162;2023-07-24T04:16:48;99317.77;;;17.22;63.47
38806;BME280;25635;51.146;17.162;2023-07-24T04:19:14;99316.55;;;17.25;63.47
38806;BME280;25635;51.146;17.162;2023-07-24T04:21:40;99325.26;;;17.31;63.56
38806;BME280;25635;51.146;17.162;2023-07-24T04:24:06;99328.69;;;17.36;63.59
38806;BME280;25635;51.146;17.162;2023-07-24T04:26:31;99331.54;;;17.39;63.53
38806;BME280;25635;51.146;17.162;2023-07-24T04:28:57;99337.29;;;17.44;63.41
38806;BME280;25635;51.146;17.162;2023-07-24T04:31:23;99337.71;;;17.50;63.69
38806;BME280;25635;51.146;17.162;2023-07-24T04:33:49;99339.80;;;17.57;63.59
38806;BME280;25635;51.146;17.162;2023-07-24T04:36:15;99341.25;;;17.67;63.66
38806;BME280;25635;51.146;17.162;2023-07-24T04:38:41;99341.59;;;17.78;63.95
38806;BME280;25635;51.146;17.162;2023-07-24T04:41:07;99341.23;;;17.92;63.86
38806;BME280;25635;51.146;17.162;2023-07-24T04:43:33;99343.66;;;18.07;63.67
38806;BME280;25635;51.146;17.162;2023-07-24T04:45:59;99339.95;;;18.20;63.30
38806;BME280;25635;51.146;17.162;2023-07-24T04:48:25;99338.23;;;18.33;63.26
38806;BME280;25635;51.146;17.162;2023-07-24T04:50:55;99336.02;;;18.44;63.30
38806;BME280;25635;51.146;17.162;2023-07-24T04:53:22;99335.79;;;18.55;63.15
38806;BME280;25635;51.146;17.162;2023-07-24T04:55:48;99337.02;;;18.65;62.85
38806;BME280;25635;51.146;17.162;2023-07-24T04:58:14;99329.05;;;18.75;62.99
38806;BME280;25635;51.146;17.162;2023-07-24T05:00:40;99331.02;;;18.85;62.89
38806;BME280;25635;51.146;17.162;2023-07-24T05:03:06;99339.30;;;18.94;62.72
38806;BME280;25635;51.146;17.162;2023-07-24T05:05:37;99344.85;;;19.02;62.65
38806;BME280;25635;51.146;17.162;2023-07-24T05:08:04;99336.29;;;19.10;62.72
38806;BME280;25635;51.146;17.162;2023-07-24T05:10:37;99332.70;;;19.20;63.10
38806;BME280;25635;51.146;17.162;2023-07-24T05:13:03;99330.15;;;19.31;62.86
38806;BME280;25635;51.146;17.162;2023-07-24T05:15:29;99329.04;;;19.41;63.29
38806;BME280;25635;51.146;17.162;2023-07-24T05:17:55;99327.98;;;19.53;62.74
38806;BME280;25635;51.146;17.162;2023-07-24T05:20:21;99322.98;;;19.63;62.47
38806;BME280;25635;51.146;17.162;2023-07-24T05:22:47;99315.17;;;19.73;61.99
38806;BME280;25635;51.146;17.162;2023-07-24T05:25:13;99313.67;;;19.83;62.05
38806;BME280;25635;51.146;17.162;2023-07-24T05:27:39;99313.88;;;19.95;61.95
38806;BME280;25635;51.146;17.162;2023-07-24T05:30:07;99311.19;;;20.04;61.72
38806;BME280;25635;51.146;17.162;2023-07-24T05:32:33;99302.23;;;20.14;61.84
38806;BME280;25635;51.146;17.162;2023-07-24T05:34:59;99297.84;;;20.25;61.79
38806;BME280;25635;51.146;17.162;2023-07-24T05:37:25;99295.31;;;20.34;61.35
38806;BME280;25635;51.146;17.162;2023-07-24T05:39:50;99291.64;;;20.42;61.19
38806;BME280;25635;51.146;17.162;2023-07-24T05:42:16;99291.11;;;20.51;61.02
38806;BME280;25635;51.146;17.162;2023-07-24T05:44:42;99288.69;;;20.61;60.90
38806;BME280;25635;51.146;17.162;2023-07-24T05:47:08;99283.61;;;20.72;60.83
38806;BME280;25635;51.146;17.162;2023-07-24T05:49:34;99278.27;;;20.83;60.69
38806;BME280;25635;51.146;17.162;2023-07-24T05:52:00;99271.36;;;20.97;60.57
38806;BME280;25635;51.146;17.162;2023-07-24T05:54:26;99270.02;;;21.11;61.02
38806;BME280;25635;51.146;17.162;2023-07-24T05:56:52;99263.02;;;21.26;60.02
38806;BME280;25635;51.146;17.162;2023-07-24T05:59:18;99256.02;;;21.41;59.90
38806;BME280;25635;51.146;17.162;2023-07-24T06:01:44;99252.24;;;21.58;59.94
38806;BME280;25635;51.146;17.162;2023-07-24T06:04:10;99248.21;;;21.73;59.81
38806;BME280;25635;51.146;17.162;2023-07-24T06:06:36;99251.56;;;21.88;59.82
38806;BME280;25635;51.146;17.162;2023-07-24T06:09:02;99248.14;;;22.02;59.42
38806;BME280;25635;51.146;17.162;2023-07-24T06:11:28;99252.17;;;22.15;59.31
38806;BME280;25635;51.146;17.162;2023-07-24T06:13:54;99251.19;;;22.27;58.45
38806;BME280;25635;51.146;17.162;2023-07-24T06:16:20;99246.92;;;22.39;58.30
38806;BME280;25635;51.146;17.162;2023-07-24T06:18:46;99247.81;;;22.52;58.25
38806;BME280;25635;51.146;17.162;2023-07-24T06:21:12;99244.48;;;22.61;57.45
38806;BME280;25635;51.146;17.162;2023-07-24T06:23:38;99246.64;;;22.70;57.19
38806;BME280;25635;51.146;17.162;2023-07-24T06:26:04;99241.73;;;22.81;57.27
38806;BME280;25635;51.146;17.162;2023-07-24T06:28:30;99243.56;;;22.90;56.98
38806;BME280;25635;51.146;17.162;2023-07-24T06:30:57;99237.31;;;22.95;56.87
38806;BME280;25635;51.146;17.162;2023-07-24T06:33:22;99237.36;;;23.00;56.35
38806;BME280;25635;51.146;17.162;2023-07-24T06:35:50;99237.98;;;23.03;56.41
38806;BME280;25635;51.146;17.162;2023-07-24T06:38:16;99241.17;;;23.08;56.19
38806;BME280;25635;51.146;17.162;2023-07-24T06:40:43;99247.05;;;23.13;55.90
38806;BME280;25635;51.146;17.162;2023-07-24T06:43:09;99252.85;;;23.16;56.00
38806;BME280;25635;51.146;17.162;2023-07-24T06:45:35;99253.11;;;23.22;56.17
38806;BME280;25635;51.146;17.162;2023-07-24T06:48:01;99251.88;;;23.27;55.66
38806;BME280;25635;51.146;17.162;2023-07-24T06:50:27;99246.91;;;23.31;55.56
38806;BME280;25635;51.146;17.162;2023-07-24T06:52:53;99245.07;;;23.37;55.53
38806;BME280;25635;51.146;17.162;2023-07-24T06:55:20;99242.45;;;23.43;55.53
38806;BME280;25635;51.146;17.162;2023-07-24T06:57:48;99241.70;;;23.51;55.37
38806;BME280;25635;51.146;17.162;2023-07-24T07:00:14;99241.19;;;23.57;55.67
38806;BME280;25635;51.146;17.162;2023-07-24T07:02:40;99235.64;;;23.64;55.44
38806;BME280;25635;51.146;17.162;2023-07-24T07:05:07;99234.16;;;23.73;55.35
38806;BME280;25635;51.146;17.162;2023-07-24T07:07:32;99231.16;;;23.82;55.02
38806;BME280;25635;51.146;17.162;2023-07-24T07:09:58;99233.86;;;23.93;54.76
38806;BME280;25635;51.146;17.162;2023-07-24T07:12:24;99227.11;;;24.04;55.07
38806;BME280;25635;51.146;17.162;2023-07-24T07:14:50;99225.34;;;24.17;54.56
38806;BME280;25635;51.146;17.162;2023-07-24T07:17:16;99225.05;;;24.32;54.26
38806;BME280;25635;51.146;17.162;2023-07-24T07:19:42;99224.48;;;24.48;53.50
38806;BME280;25635;51.146;17.162;2023-07-24T07:22:08;99222.33;;;24.64;53.03
38806;BME280;25635;51.146;17.162;2023-07-24T07:24:34;99215.05;;;24.83;53.55
38806;BME280;25635;51.146;17.162;2023-07-24T07:27:00;99210.89;;;25.05;52.51
38806;BME280;25635;51.146;17.162;2023-07-24T07:29:26;99206.76;;;25.27;52.22
38806;BME280;25635;51.146;17.162;2023-07-24T07:31:52;99211.33;;;25.49;51.14
38806;BME280;25635;51.146;17.162;2023-07-24T07:34:18;99213.87;;;25.75;51.77
38806;BME280;25635;51.146;17.162;2023-07-24T07:36:44;99215.36;;;26.04;51.07
38806;BME280;25635;51.146;17.162;2023-07-24T07:39:10;99217.85;;;26.30;49.98
38806;BME280;25635;51.146;17.162;2023-07-24T07:41:36;99215.48;;;26.57;49.59
38806;BME280;25635;51.146;17.162;2023-07-24T07:44:02;99218.94;;;26.84;48.79
38806;BME280;25635;51.146;17.162;2023-07-24T07:46:28;99217.21;;;27.09;48.64
38806;BME280;25635;51.146;17.162;2023-07-24T07:48:54;99209.52;;;27.34;47.81
38806;BME280;25635;51.146;17.162;2023-07-24T07:51:20;99201.64;;;27.53;46.95
38806;BME280;25635;51.146;17.162;2023-07-24T07:53:46;99200.17;;;27.78;47.66
38806;BME280;25635;51.146;17.162;2023-07-24T07:56:12;99197.67;;;28.04;45.84
38806;BME280;25635;51.146;17.162;2023-07-24T07:58:38;99193.48;;;28.26;45.55
38806;BME280;25635;51.146;17.162;2023-07-24T08:01:05;99193.44;;;28.50;45.76
38806;BME280;25635;51.146;17.162;2023-07-24T08:03:31;99189.27;;;28.78;45.24
38806;BME280;25635;51.146;17.162;2023-07-24T08:05:57;99193.92;;;29.05;44.32
38806;BME280;25635;51.146;17.162;2023-07-24T08:08:24;99187.80;;;29.28;43.09
38806;BME280;25635;51.146;17.162;2023-07-24T08:10:50;99188.60;;;29.41;42.06
38806;BME280;25635;51.146;17.162;2023-07-24T08:13:16;99194.27;;;29.55;42.01
38806;BME280;25635;51.146;17.162;2023-07-24T08:15:42;99196.89;;;29.73;41.99
38806;BME280;25635;51.146;17.162;2023-07-24T08:18:07;99199.72;;;29.89;41.46
38806;BME280;25635;51.146;17.162;2023-07-24T08:20:37;99196.14;;;29.99;40.48
38806;BME280;25635;51.146;17.162;2023-07-24T08:23:04;99195.80;;;30.13;40.60
38806;BME280;25635;51.146;17.162;2023-07-24T08:25:30;99189.36;;;30.31;40.42
38806;BME280;25635;51.146;17.162;2023-07-24T08:27:56;99183.30;;;30.51;39.61
38806;BME280;25635;51.146;17.162;2023-07-24T08:30:22;99186.55;;;30.59;39.10
38806;BME280;25635;51.146;17.162;2023-07-24T08:32:48;99190.45;;;30.65;38.00
38806;BME280;25635;51.146;17.162;2023-07-24T08:35:17;99190.23;;;30.66;37.28
38806;BME280;25635;51.146;17.162;2023-07-24T08:37:43;99190.38;;;30.62;37.33
38806;BME280;25635;51.146;17.162;2023-07-24T08:40:12;99192.63;;;30.73;38.06
38806;BME280;25635;51.146;17.162;2023-07-24T08:42:39;99197.53;;;30.89;37.15
38806;BME280;25635;51.146;17.162;2023-07-24T08:45:11;99193.05;;;30.94;37.71
38806;BME280;25635;51.146;17.162;2023-07-24T08:47:38;99189.71;;;31.08;37.07
38806;BME280;25635;51.146;17.162;2023-07-24T08:50:07;99191.96;;;31.20;37.24
38806;BME280;25635;51.146;17.162;2023-07-24T08:52:35;99191.52;;;31.34;36.54
38806;BME280;25635;51.146;17.162;2023-07-24T08:55:02;99195.78;;;31.37;35.80
38806;BME280;25635;51.146;17.162;2023-07-24T08:57:29;99190.41;;;31.41;36.40
38806;BME280;25635;51.146;17.162;2023-07-24T08:59:55;99189.23;;;31.53;36.15
38806;BME280;25635;51.146;17.162;2023-07-24T09:02:21;99189.81;;;31.64;35.82
38806;BME280;25635;51.146;17.162;2023-07-24T09:04:46;99186.55;;;31.70;35.53
38806;BME280;25635;51.146;17.162;2023-07-24T09:07:13;99178.63;;;31.79;36.37
38806;BME280;25635;51.146;17.162;2023-07-24T09:09:39;99176.52;;;31.99;35.65
38806;BME280;25635;51.146;17.162;2023-07-24T09:12:06;99167.59;;;32.16;35.24
38806;BME280;25635;51.146;17.162;2023-07-24T09:14:31;99169.11;;;32.31;35.30
38806;BME280;25635;51.146;17.162;2023-07-24T09:17:09;99168.98;;;32.46;35.12
38806;BME280;25635;51.146;17.162;2023-07-24T09:19:37;99164.87;;;32.54;35.12
38806;BME280;25635;51.146;17.162;2023-07-24T09:22:11;99157.67;;;32.66;35.06
38806;BME280;25635;51.146;17.162;2023-07-24T09:24:38;99147.05;;;32.77;34.81
38806;BME280;25635;51.146;17.162;2023-07-24T09:27:14;99145.33;;;32.78;34.52
38806;BME280;25635;51.146;17.162;2023-07-24T09:29:40;99143.55;;;32.77;34.56
38806;BME280;25635;51.146;17.162;2023-07-24T09:32:06;99142.23;;;32.81;34.34
38806;BME280;25635;51.146;17.162;2023-07-24T09:34:32;99139.70;;;32.87;34.74
38806;BME280;25635;51.146;17.162;2023-07-24T09:36:58;99140.30;;;32.92;34.86
38806;BME280;25635;51.146;17.162;2023-07-24T09:39:25;99136.92;;;32.97;34.32
38806;BME280;25635;51.146;17.162;2023-07-24T09:41:52;99134.71;;;33.04;33.93
38806;BME280;25635;51.146;17.162;2023-07-24T09:44:18;99136.84;;;33.08;34.20
38806;BME280;25635;51.146;17.162;2023-07-24T09:46:45;99142.08;;;33.18;34.08
38806;BME280;25635;51.146;17.162;2023-07-24T09:49:12;99139.49;;;33.19;33.44
38806;BME280;25635;51.146;17.162;2023-07-24T09:51:38;99146.40;;;33.17;33.36
38806;BME280;25635;51.146;17.162;2023-07-24T09:54:24;99140.08;;;33.13;33.48
38806;BME280;25635;51.146;17.162;2023-07-24T09:56:53;99126.69;;;33.19;33.64
38806;BME280;25635;51.146;17.162;2023-07-24T09:59:21;99122.70;;;33.22;33.09
38806;BME280;25635;51.146;17.162;2023-07-24T10:01:47;99123.67;;;33.26;33.43
38806;BME280;25635;51.146;17.162;2023-07-24T10:04:15;99123.81;;;33.36;33.75
38806;BME280;25635;51.146;17.162;2023-07-24T10:06:43;99126.96;;;33.48;33.18
38806;BME280;25635;51.146;17.162;2023-07-24T10:09:10;99127.17;;;33.65;33.63
38806;BME280;25635;51.146;17.162;2023-07-24T10:11:37;99135.85;;;33.83;33.24
38806;BME280;25635;51.146;17.162;2023-07-24T10:14:03;99129.19;;;34.00;33.30
38806;BME280;25635;51.146;17.162;2023-07-24T10:16:29;99131.16;;;34.27;33.74
38806;BME280;25635;51.146;17.162;2023-07-24T10:18:55;99129.14;;;34.47;32.04
38806;BME280;25635;51.146;17.162;2023-07-24T10:21:27;99132.61;;;34.53;32.21
38806;BME280;25635;51.146;17.162;2023-07-24T10:23:54;99126.45;;;34.63;31.33
38806;BME280;25635;51.146;17.162;2023-07-24T10:26:26;99119.77;;;34.59;31.24
38806;BME280;25635;51.146;17.162;2023-07-24T10:28:52;99114.28;;;34.57;31.47
38806;BME280;25635;51.146;17.162;2023-07-24T10:31:22;99110.63;;;34.62;31.97
38806;BME280;25635;51.146;17.162;2023-07-24T10:33:49;99113.70;;;34.76;32.18
38806;BME280;25635;51.146;17.162;2023-07-24T10:36:20;99110.08;;;34.81;31.83
38806;BME280;25635;51.146;17.162;2023-07-24T10:38:55;99114.71;;;34.77;31.63
38806;BME280;25635;51.146;17.162;2023-07-24T10:41:22;99120.77;;;34.68;31.32
38806;BME280;25635;51.146;17.162;2023-07-24T10:43:52;99123.10;;;34.61;31.83
38806;BME280;25635;51.146;17.162;2023-07-24T10:46:20;99128.13;;;34.48;30.78
38806;BME280;25635;51.146;17.162;2023-07-24T10:48:49;99118.05;;;34.20;30.87
38806;BME280;25635;51.146;17.162;2023-07-24T10:51:15;99115.41;;;34.06;31.48
38806;BME280;25635;51.146;17.162;2023-07-24T10:53:45;99116.56;;;33.88;31.62
38806;BME280;25635;51.146;17.162;2023-07-24T10:56:12;99109.59;;;33.71;32.27
38806;BME280;25635;51.146;17.162;2023-07-24T10:58:38;99103.33;;;33.68;32.71
38806;BME280;25635;51.146;17.162;2023-07-24T11:01:05;99097.39;;;33.55;32.38
38806;BME280;25635;51.146;17.162;2023-07-24T11:03:32;99093.14;;;33.38;32.67
38806;BME280;25635;51.146;17.162;2023-07-24T11:06:02;99087.08;;;33.18;32.85
38806;BME280;25635;51.146;17.162;2023-07-24T11:08:28;99084.08;;;33.02;33.08
38806;BME280;25635;51.146;17.162;2023-07-24T11:10:55;99080.80;;;32.81;33.44
38806;BME280;25635;51.146;17.162;2023-07-24T11:13:24;99079.98;;;32.72;33.93
38806;BME280;25635;51.146;17.162;2023-07-24T11:15:51;99068.77;;;32.69;34.59
38806;BME280;25635;51.146;17.162;2023-07-24T11:18:19;99060.05;;;32.69;34.37
38806;BME280;25635;51.146;17.162;2023-07-24T11:20:53;99058.98;;;32.61;34.66
38806;BME280;25635;51.146;17.162;2023-07-24T11:23:19;99056.23;;;32.62;34.89
38806;BME280;25635;51.146;17.162;2023-07-24T11:25:46;99052.45;;;32.66;35.05
38806;BME280;25635;51.146;17.162;2023-07-24T11:28:13;99049.81;;;32.75;35.06
38806;BME280;25635;51.146;17.162;2023-07-24T11:30:40;99050.43;;;32.83;34.96
38806;BME280;25635;51.146;17.162;2023-07-24T11:33:09;99046.05;;;32.90;34.76
38806;BME280;25635;51.146;17.162;2023-07-24T11:35:36;99050.30;;;33.01;35.35
38806;BME280;25635;51.146;17.162;2023-07-24T11:38:06;99056.10;;;33.07;34.76
38806;BME280;25635;51.146;17.162;2023-07-24T11:40:43;99055.89;;;33.10;35.32
38806;BME280;25635;51.146;17.162;2023-07-24T11:43:21;99055.00;;;33.26;35.31
38806;BME280;25635;51.146;17.162;2023-07-24T11:45:48;99048.97;;;33.39;35.08
38806;BME280;25635;51.146;17.162;2023-07-24T11:48:18;99052.48;;;33.43;35.04
38806;BME280;25635;51.146;17.162;2023-07-24T11:50:48;99047.93;;;33.55;34.78
38806;BME280;25635;51.146;17.162;2023-07-24T11:55:57;99042.52;;;33.70;34.01
38806;BME280;25635;51.146;17.162;2023-07-24T11:58:28;99032.78;;;33.76;34.40
38806;BME280;25635;51.146;17.162;2023-07-24T12:00:55;99034.71;;;33.90;34.44
38806;BME280;25635;51.146;17.162;2023-07-24T12:03:27;99026.48;;;34.04;34.48
38806;BME280;25635;51.146;17.162;2023-07-24T12:05:54;99022.38;;;34.17;34.70
38806;BME280;25635;51.146;17.162;2023-07-24T12:08:21;99023.38;;;34.28;34.66
38806;BME280;25635;51.146;17.162;2023-07-24T12:10:54;99025.41;;;34.36;33.45
38806;BME280;25635;51.146;17.162;2023-07-24T12:13:20;99015.46;;;34.45;33.21
38806;BME280;25635;51.146;17.162;2023-07-24T12:15:46;99016.42;;;34.56;33.19
38806;BME280;25635;51.146;17.162;2023-07-24T12:18:15;99003.80;;;34.62;33.00
38806;BME280;25635;51.146;17.162;2023-07-24T12:20:41;98998.02;;;34.68;33.12
38806;BME280;25635;51.146;17.162;2023-07-24T12:23:07;98998.96;;;34.83;32.56
38806;BME280;25635;51.146;17.162;2023-07-24T12:25:33;98996.16;;;34.88;32.57
38806;BME280;25635;51.146;17.162;2023-07-24T12:27:59;98995.58;;;34.94;32.27
38806;BME280;25635;51.146;17.162;2023-07-24T12:30:28;98995.67;;;34.91;31.81
38806;BME280;25635;51.146;17.162;2023-07-24T12:32:54;98986.35;;;34.90;32.10
38806;BME280;25635;51.146;17.162;2023-07-24T12:35:20;98985.66;;;34.93;32.06
38806;BME280;25635;51.146;17.162;2023-07-24T12:37:46;98985.86;;;34.91;31.72
38806;BME280;25635;51.146;17.162;2023-07-24T12:40:12;98982.31;;;34.85;31.93
38806;BME280;25635;51.146;17.162;2023-07-24T12:42:38;98981.91;;;34.81;31.54
38806;BME280;25635;51.146;17.162;2023-07-24T12:45:05;98974.52;;;34.71;31.71
38806;BME280;25635;51.146;17.162;2023-07-24T12:47:33;98970.23;;;34.62;31.59
38806;BME280;25635;51.146;17.162;2023-07-24T12:50:00;98962.85;;;34.44;31.51
38806;BME280;25635;51.146;17.162;2023-07-24T12:52:26;98959.46;;;34.28;31.51